Pantokrator — SVA6910 — position and weather

sailwx.info

Track history (hours):
 
Tides and Currents Weather Stations Pressure Air Temp Water Temp Dewpoint Dewpoint Depression Visibility Wind Speed Wind Dir Waves Ship Positions

Pantokrator

Last reported at 2018-Jun-20 05:30 UTC. Time now 2018-Jun-20 05:50 UTC.
Position N 38°02' E 023°32'.

Length 40 m; draft 3.8 m.

Type: Tug. MMSI: 241443000.

Date/timePositionNaut miles runAvg speedWind from/ knotsBaromVisibWave heightAir tempDewpointWater temp
2018-Jun-20 05:30N 38°02' E 023°32'0 0.0
2018-Jun-20 05:00N 38°02' E 023°32'0 0.0
2018-Jun-20 04:30N 38°02' E 023°32'0 0.0
2018-Jun-20 04:00N 38°02' E 023°32'0 0.0
2018-Jun-20 03:30N 38°02' E 023°32'0 0.0
2018-Jun-20 03:00N 38°02' E 023°32'0 0.0
2018-Jun-20 02:30N 38°02' E 023°32'0 0.0
2018-Jun-19 11:07N 38°02' E 023°32'0 0.0
2018-Jun-19 11:00N 38°02' E 023°32'0 0.0
2018-Jun-19 10:30N 38°02' E 023°32'0 0.0
2018-Jun-19 10:00N 38°02' E 023°32'0 0.0
2018-Jun-19 09:30N 38°02' E 023°32'0 0.0
2018-Jun-19 09:00N 38°02' E 023°32'0 1.0
2018-Jun-19 08:30N 38°02' E 023°32'5 9.4
2018-Jun-19 08:01N 37°60' E 023°26'3 6.0
2018-Jun-19 07:30N 37°57' E 023°24'1 1.4
2018-Jun-19 07:01N 37°58' E 023°24'0 0.0
2018-Jun-19 06:31N 37°58' E 023°24'0 0.0
2018-Jun-19 06:00N 37°58' E 023°24'0 0.0
2018-Jun-19 05:30N 37°58' E 023°24'0 0.0
2018-Jun-19 05:00N 37°58' E 023°24'0 0.0
2018-Jun-19 04:30N 37°58' E 023°24'0 0.0
2018-Jun-19 04:01N 37°58' E 023°24'0 0.0
2018-Jun-19 03:30N 37°58' E 023°24'0 0.0
2018-Jun-19 03:00N 37°58' E 023°24'0 0.0
2018-Jun-19 02:30N 37°58' E 023°24'0 0.0
2018-Jun-19 02:00N 37°58' E 023°24'0 0.0
2018-Jun-19 01:30N 37°58' E 023°24'0 0.0
2018-Jun-19 01:01N 37°58' E 023°24'0 0.0
2018-Jun-19 00:31N 37°58' E 023°24'0 0.0
2018-Jun-19 00:00N 37°58' E 023°24'0 0.0
2018-Jun-18 23:30N 37°58' E 023°24'0 0.0
2018-Jun-18 23:00N 37°58' E 023°24'1 1.0
2018-Jun-18 22:30N 37°58' E 023°25'3 6.4
2018-Jun-18 22:00N 38°00' E 023°27'4 8.4
2018-Jun-18 21:31N 38°02' E 023°32'0 0.0
2018-Jun-18 21:01N 38°02' E 023°32'0 0.0
2018-Jun-18 20:30N 38°02' E 023°32'0 0.0
2018-Jun-18 10:56N 38°02' E 023°32'0 0.0
2018-Jun-18 10:30N 38°02' E 023°32'0 0.0
2018-Jun-18 10:00N 38°02' E 023°32'1 1.3
2018-Jun-18 09:30N 38°02' E 023°32'5 9.7
2018-Jun-18 09:00N 37°60' E 023°26'3 5.4
2018-Jun-18 08:30N 37°58' E 023°24'0 0.2
2018-Jun-18 08:01N 37°57' E 023°24'1 1.8
2018-Jun-18 07:30N 37°57' E 023°23'1 1.7
2018-Jun-18 07:01N 37°57' E 023°24'2 3.2
2018-Jun-18 06:30N 37°59' E 023°25'5 9.6
2018-Jun-18 06:00N 38°01' E 023°30'2 4.0
2018-Jun-18 05:30N 38°02' E 023°32'0 0.0
2018-Jun-18 05:00N 38°02' E 023°32'0 0.0
2018-Jun-18 04:30N 38°02' E 023°32'0 0.0
2018-Jun-18 04:00N 38°02' E 023°32'0 0.0
2018-Jun-18 03:30N 38°02' E 023°32'0 0.0
2018-Jun-18 03:00N 38°02' E 023°32'0 0.0
2018-Jun-18 02:30N 38°02' E 023°32'0 0.0
2018-Jun-18 02:00N 38°02' E 023°32'0 0.0
2018-Jun-18 01:30N 38°02' E 023°32'0 0.0
2018-Jun-18 01:00N 38°02' E 023°32'0 0.0
2018-Jun-18 00:30N 38°02' E 023°32'0 0.0
2018-Jun-18 00:00N 38°02' E 023°32'0 0.0
2018-Jun-17 23:30N 38°02' E 023°32'0 0.0
2018-Jun-17 23:00N 38°02' E 023°32'0 0.0
2018-Jun-17 22:30N 38°02' E 023°32'0 0.0
2018-Jun-17 22:00N 38°02' E 023°32'0 0.0
2018-Jun-17 21:30N 38°02' E 023°32'0 0.0
2018-Jun-17 21:00N 38°02' E 023°32'0 0.0
2018-Jun-17 20:30N 38°02' E 023°32'0 0.0
2018-Jun-17 20:00N 38°02' E 023°32'0 0.0
2018-Jun-17 19:30N 38°02' E 023°32'0 0.0
2018-Jun-17 19:00N 38°02' E 023°32'0 0.0
2018-Jun-17 18:30N 38°02' E 023°32'0 0.0
2018-Jun-17 18:00N 38°02' E 023°32'0 0.0
2018-Jun-17 17:31N 38°02' E 023°32'2 3.6
2018-Jun-17 17:00N 38°01' E 023°30'5 9.4
2018-Jun-17 16:30N 37°59' E 023°25'2 4.1
2018-Jun-17 16:00N 37°58' E 023°23'1 1.7
2018-Jun-17 15:30N 37°58' E 023°24'0 0.9
2018-Jun-17 15:00N 37°58' E 023°24'0 0.0
2018-Jun-17 14:30N 37°58' E 023°24'0 0.0
2018-Jun-17 14:00N 37°58' E 023°24'0 0.0
2018-Jun-17 13:30N 37°58' E 023°24'0 0.0
2018-Jun-17 13:00N 37°58' E 023°24'0 0.0
2018-Jun-17 12:30N 37°58' E 023°24'0 0.0
2018-Jun-17 12:00N 37°58' E 023°24'0 0.0
2018-Jun-17 11:30N 37°58' E 023°24'0 0.0
2018-Jun-17 11:00N 37°58' E 023°24'0 0.0
2018-Jun-17 10:30N 37°58' E 023°24'0 0.0
2018-Jun-17 10:00N 37°58' E 023°24'0 0.0
2018-Jun-17 09:30N 37°58' E 023°24'0 0.0
2018-Jun-17 09:00N 37°58' E 023°24'0 0.0
2018-Jun-17 08:30N 37°58' E 023°24'0 0.0
2018-Jun-17 08:00N 37°58' E 023°24'0 0.0
2018-Jun-17 07:30N 37°58' E 023°24'0 0.0
2018-Jun-17 07:00N 37°58' E 023°24'0 0.0
2018-Jun-17 06:30N 37°58' E 023°24'0 0.0
2018-Jun-17 06:00N 37°58' E 023°24'0 0.0
2018-Jun-17 05:30N 37°58' E 023°24'0 0.0
2018-Jun-17 05:00N 37°58' E 023°24'0 0.0
2018-Jun-17 04:30N 37°58' E 023°24'0 0.0
2018-Jun-17 04:00N 37°58' E 023°24'0 0.0
2018-Jun-17 03:30N 37°58' E 023°24'0 0.0
2018-Jun-17 03:00N 37°58' E 023°24'0 0.0
2018-Jun-17 02:30N 37°58' E 023°24'0 0.0
2018-Jun-17 02:00N 37°58' E 023°24'0 0.0
2018-Jun-17 01:30N 37°58' E 023°24'0 0.0
2018-Jun-17 01:00N 37°58' E 023°24'0 0.0
2018-Jun-17 00:30N 37°58' E 023°24'0 0.0
2018-Jun-17 00:00N 37°58' E 023°24'0 0.0
2018-Jun-16 23:30N 37°58' E 023°24'0 0.0
2018-Jun-16 23:00N 37°58' E 023°24'0 0.0
2018-Jun-16 22:30N 37°58' E 023°24'0 0.0
2018-Jun-16 22:00N 37°58' E 023°24'1 1.6
2018-Jun-16 21:30N 37°59' E 023°25'5 9.2
2018-Jun-16 21:00N 38°01' E 023°30'2 4.3
2018-Jun-16 20:30N 38°02' E 023°32'0 0.0
2018-Jun-16 09:45N 38°02' E 023°32'0 0.0
2018-Jun-16 09:30N 38°02' E 023°32'3 6.5
2018-Jun-16 09:00N 38°01' E 023°28'3 6.8
2018-Jun-16 08:30N 37°58' E 023°26'2 4.8
2018-Jun-16 08:00N 37°58' E 023°23'0 0.0
2018-Jun-16 07:30N 37°58' E 023°23'0 0.1
2018-Jun-16 07:00N 37°58' E 023°23'1 1.7
2018-Jun-16 06:30N 37°58' E 023°23'1 2.4
2018-Jun-16 06:00N 37°56' E 023°23'2 4.2
2018-Jun-16 05:30N 37°58' E 023°25'3 6.5
2018-Jun-16 05:00N 38°00' E 023°28'4 8.1
2018-Jun-16 04:30N 38°02' E 023°32'0 0.0
2018-Jun-16 04:00N 38°02' E 023°32'0 0.0
2018-Jun-16 03:30N 38°02' E 023°32'0 0.0
2018-Jun-16 03:00N 38°02' E 023°32'0 0.0
2018-Jun-16 02:30N 38°02' E 023°32'0 0.0
2018-Jun-16 02:00N 38°02' E 023°32'0 0.0
2018-Jun-16 01:30N 38°02' E 023°32'0 0.0
2018-Jun-16 01:00N 38°02' E 023°32'0 0.0
2018-Jun-16 00:30N 38°02' E 023°32'0 0.0
2018-Jun-16 00:00N 38°02' E 023°32'0 0.0
2018-Jun-15 23:30N 38°02' E 023°32'0 0.0
2018-Jun-15 23:00N 38°02' E 023°32'0 0.0
2018-Jun-15 22:30N 38°02' E 023°32'0 0.0
2018-Jun-15 22:00N 38°02' E 023°32'0 0.0
2018-Jun-15 21:30N 38°02' E 023°32'0 0.0
2018-Jun-15 21:00N 38°02' E 023°32'0 0.0
2018-Jun-15 20:30N 38°02' E 023°32'0 0.0
2018-Jun-15 20:00N 38°02' E 023°32'0 0.1
2018-Jun-15 19:30N 38°02' E 023°32'3 5.2
2018-Jun-15 18:59N 38°01' E 023°36'0 0.2
2018-Jun-15 18:31N 38°01' E 023°36'0 0.2
2018-Jun-15 18:00N 38°01' E 023°35'0 0.0
2018-Jun-15 17:30N 38°01' E 023°35'0 0.0
2018-Jun-15 17:00N 38°01' E 023°35'3 5.3
2018-Jun-15 16:30N 38°02' E 023°32'0 0.0
2018-Jun-15 16:00N 38°02' E 023°32'1 1.8
2018-Jun-15 15:30N 38°02' E 023°31'0 1.0
2018-Jun-15 15:01N 38°02' E 023°31'0 0.8
2018-Jun-15 14:30N 38°02' E 023°30'0 0.0
2018-Jun-15 14:00N 38°02' E 023°30'0 0.0
2018-Jun-15 13:30N 38°02' E 023°30'0 0.0
2018-Jun-15 13:00N 38°02' E 023°30'1 2.9
2018-Jun-15 12:30N 38°02' E 023°32'0 0.0
2018-Jun-15 12:00N 38°02' E 023°32'0 0.0
2018-Jun-15 11:30N 38°02' E 023°32'0 0.0
2018-Jun-15 10:59N 38°02' E 023°32'0 0.0
2018-Jun-15 10:30N 38°02' E 023°32'0 0.0
2018-Jun-15 10:00N 38°02' E 023°32'0 0.0
2018-Jun-15 09:30N 38°02' E 023°32'0 0.0
2018-Jun-15 09:00N 38°02' E 023°32'0 0.0
2018-Jun-15 08:30N 38°02' E 023°32'0 0.0
2018-Jun-15 08:00N 38°02' E 023°32'0 0.0
2018-Jun-15 07:30N 38°02' E 023°32'0 0.0
2018-Jun-15 07:00N 38°02' E 023°32'0 0.0
2018-Jun-15 06:30N 38°02' E 023°32'0 0.0
2018-Jun-15 06:00N 38°02' E 023°32'0 0.0
2018-Jun-15 05:30N 38°02' E 023°32'0 0.0
2018-Jun-15 05:00N 38°02' E 023°32'0 0.0
2018-Jun-15 04:30N 38°02' E 023°32'0 0.0
2018-Jun-15 04:00N 38°02' E 023°32'0 0.0
2018-Jun-15 03:30N 38°02' E 023°32'0 0.0
2018-Jun-15 03:00N 38°02' E 023°32'0 0.0
2018-Jun-15 02:31N 38°02' E 023°32'0 0.0
2018-Jun-14 15:38N 38°02' E 023°32'0 0.0
2018-Jun-14 15:30N 38°02' E 023°32'0 0.9
2018-Jun-14 15:01N 38°02' E 023°32'1 1.8
2018-Jun-14 14:31N 38°02' E 023°32'1 1.3
2018-Jun-14 14:00N 38°02' E 023°32'0 0.0
2018-Jun-14 13:30N 38°02' E 023°32'0 0.0
2018-Jun-14 13:00N 38°02' E 023°32'0 0.0
2018-Jun-14 12:30N 38°02' E 023°32'0 0.0
2018-Jun-14 12:00N 38°02' E 023°32'0 0.0
2018-Jun-14 11:30N 38°02' E 023°32'0 0.0
2018-Jun-14 11:00N 38°02' E 023°32'0 0.0
2018-Jun-14 10:30N 38°02' E 023°32'0 0.0
2018-Jun-14 10:01N 38°02' E 023°32'0 0.0
2018-Jun-14 09:30N 38°02' E 023°32'0 0.0
2018-Jun-14 09:01N 38°02' E 023°32'0 0.0
2018-Jun-14 08:30N 38°02' E 023°32'0 0.0
2018-Jun-14 08:00N 38°02' E 023°32'0 0.0
2018-Jun-14 07:31N 38°02' E 023°32'0 1.0
2018-Jun-14 07:01N 38°02' E 023°32'0 0.0
2018-Jun-14 06:30N 38°02' E 023°32'0 1.0
2018-Jun-14 06:00N 38°02' E 023°32'0 0.0
2018-Jun-14 05:31N 38°02' E 023°32'0 0.0
2018-Jun-14 05:00N 38°02' E 023°32'0 0.0
2018-Jun-14 04:30N 38°02' E 023°32'0 0.0
2018-Jun-14 04:00N 38°02' E 023°32'0 0.0
2018-Jun-14 03:30N 38°02' E 023°32'0 0.0
2018-Jun-14 03:00N 38°02' E 023°32'0 0.0
2018-Jun-14 02:31N 38°02' E 023°32'0 0.0
2018-Jun-13 18:44N 38°02' E 023°32'0 0.1
2018-Jun-13 18:30N 38°02' E 023°32'4 7.9
2018-Jun-13 18:01N 38°01' E 023°28'3 6.8
2018-Jun-13 17:31N 37°58' E 023°25'2 3.7
2018-Jun-13 17:00N 37°58' E 023°23'0 0.0
2018-Jun-13 16:31N 37°58' E 023°23'1 2.0
2018-Jun-13 16:00N 37°58' E 023°24'0 0.0
2018-Jun-13 15:30N 37°58' E 023°24'0 0.0
2018-Jun-13 15:00N 37°58' E 023°24'0 0.0
2018-Jun-13 14:30N 37°58' E 023°24'0 0.0
2018-Jun-13 14:00N 37°58' E 023°24'0 0.0
2018-Jun-13 13:31N 37°58' E 023°24'0 0.0
2018-Jun-13 13:01N 37°58' E 023°24'0 0.0
2018-Jun-13 12:30N 37°58' E 023°24'0 0.0
2018-Jun-13 12:00N 37°58' E 023°24'0 0.0
2018-Jun-13 11:31N 37°58' E 023°24'0 0.0
2018-Jun-13 11:00N 37°58' E 023°24'0 0.0
2018-Jun-13 10:31N 37°58' E 023°24'0 0.0
2018-Jun-13 10:00N 37°58' E 023°24'0 0.0
2018-Jun-13 09:30N 37°58' E 023°24'0 0.0
2018-Jun-13 09:00N 37°58' E 023°24'0 0.0
2018-Jun-13 08:30N 37°58' E 023°24'0 0.0
2018-Jun-13 08:01N 37°58' E 023°24'0 0.0
2018-Jun-13 07:31N 37°58' E 023°24'0 0.0
2018-Jun-13 07:00N 37°58' E 023°24'0 0.0
2018-Jun-13 06:30N 37°58' E 023°24'1 1.4
2018-Jun-13 06:00N 37°58' E 023°25'3 6.8
2018-Jun-13 05:31N 38°00' E 023°28'4 8.5
2018-Jun-13 05:00N 37°59' E 023°33'3 6.1
2018-Jun-13 04:31N 37°57' E 023°35'1 1.9
2018-Jun-13 04:01N 37°57' E 023°36'0 0.3
2018-Jun-13 03:30N 37°57' E 023°36'0 0.0
2018-Jun-13 03:00N 37°57' E 023°36'0 0.0
2018-Jun-13 02:30N 37°57' E 023°36'0 0.1
2018-Jun-13 02:01N 37°57' E 023°36'0 0.0
2018-Jun-13 01:30N 37°57' E 023°36'0 0.0
2018-Jun-13 01:01N 37°57' E 023°36'0 0.0
2018-Jun-13 00:30N 37°57' E 023°36'0 0.0
2018-Jun-13 00:01N 37°57' E 023°36'0 0.0
2018-Jun-12 23:30N 37°57' E 023°36'0 0.0
2018-Jun-12 23:00N 37°57' E 023°36'0 0.0
2018-Jun-12 22:31N 37°57' E 023°36'1 1.7
2018-Jun-12 22:00N 37°57' E 023°35'1 1.9
2018-Jun-12 21:30N 37°56' E 023°35'1 1.9
2018-Jun-12 21:00N 37°57' E 023°35'0 0.1
2018-Jun-12 20:30N 37°57' E 023°35'0 0.3
2018-Jun-12 20:00N 37°57' E 023°35'1 1.4
2018-Jun-12 19:31N 37°57' E 023°36'0 0.4
2018-Jun-12 19:00N 37°57' E 023°36'0 0.0
2018-Jun-12 18:30N 37°57' E 023°36'0 0.0
2018-Jun-12 18:01N 37°57' E 023°36'0 0.0
2018-Jun-12 17:30N 37°57' E 023°36'0 0.0
2018-Jun-12 17:01N 37°57' E 023°36'0 0.0
2018-Jun-12 16:31N 37°57' E 023°36'0 0.0
2018-Jun-12 16:01N 37°57' E 023°36'0 0.0
2018-Jun-12 15:30N 37°57' E 023°36'0 0.0
2018-Jun-12 15:00N 37°57' E 023°36'0 0.0
2018-Jun-12 14:31N 37°57' E 023°36'0 0.0
2018-Jun-12 14:01N 37°57' E 023°36'0 0.0
2018-Jun-12 13:30N 37°57' E 023°36'0 0.0
2018-Jun-12 13:01N 37°57' E 023°36'0 0.0
2018-Jun-12 12:30N 37°57' E 023°36'0 0.0
2018-Jun-12 12:01N 37°57' E 023°36'0 0.0
2018-Jun-12 11:31N 37°57' E 023°36'0 0.0
2018-Jun-12 11:00N 37°57' E 023°36'0 0.0
2018-Jun-12 10:30N 37°57' E 023°36'0 0.0
2018-Jun-12 10:00N 37°57' E 023°36'0 0.0
2018-Jun-12 09:30N 37°57' E 023°36'0 0.0
2018-Jun-12 09:00N 37°57' E 023°36'0 0.0
2018-Jun-12 08:31N 37°57' E 023°36'0 0.0
2018-Jun-12 08:00N 37°57' E 023°36'0 0.0
2018-Jun-12 07:30N 37°57' E 023°36'0 0.0
2018-Jun-12 07:00N 37°57' E 023°36'0 0.0
2018-Jun-12 06:30N 37°57' E 023°36'0 0.0
2018-Jun-12 06:00N 37°57' E 023°36'0 0.0
2018-Jun-12 05:30N 37°57' E 023°36'1 1.8
2018-Jun-12 05:01N 37°57' E 023°35'1 2.4
2018-Jun-12 04:31N 37°56' E 023°35'0 0.9
2018-Jun-12 04:01N 37°56' E 023°35'2 3.7
2018-Jun-12 03:31N 37°57' E 023°36'0 0.6
2018-Jun-12 03:01N 37°57' E 023°36'0 0.0
2018-Jun-12 02:31N 37°57' E 023°36'0 0.0
2018-Jun-11 17:26N 37°57' E 023°36'1 1.9
2018-Jun-11 17:00N 37°57' E 023°35'0 0.2
2018-Jun-11 16:30N 37°57' E 023°35'2 3.2
2018-Jun-11 16:01N 37°55' E 023°35'611.0
2018-Jun-11 15:30N 37°53' E 023°29'510.0
2018-Jun-11 15:00N 37°54' E 023°23'510.0
2018-Jun-11 14:30N 37°59' E 023°25'611.5
2018-Jun-11 14:00N 38°02' E 023°31'1 1.9
2018-Jun-11 13:30N 38°02' E 023°32'0 0.0
2018-Jun-11 13:00N 38°02' E 023°32'0 0.0
2018-Jun-11 12:30N 38°02' E 023°32'0 0.0
2018-Jun-11 12:00N 38°02' E 023°32'1 2.8
2018-Jun-11 11:30N 38°02' E 023°30'0 0.6
2018-Jun-11 11:00N 38°02' E 023°30'0 0.0
2018-Jun-11 10:30N 38°02' E 023°30'0 0.0
2018-Jun-11 10:00N 38°02' E 023°30'0 0.0
2018-Jun-11 09:30N 38°02' E 023°30'0 0.0
2018-Jun-11 09:00N 38°02' E 023°30'0 0.0
2018-Jun-11 08:30N 38°02' E 023°30'0 0.0
2018-Jun-11 08:00N 38°02' E 023°30'0 0.0
2018-Jun-11 07:30N 38°02' E 023°30'0 0.0
2018-Jun-11 07:00N 38°02' E 023°30'0 0.0
2018-Jun-11 06:30N 38°02' E 023°30'0 0.0
2018-Jun-11 06:00N 38°02' E 023°30'0 0.0
2018-Jun-11 05:30N 38°02' E 023°30'0 0.0
2018-Jun-11 05:00N 38°02' E 023°30'0 0.0
2018-Jun-11 04:30N 38°02' E 023°30'0 0.0
2018-Jun-11 04:00N 38°02' E 023°30'0 0.0
2018-Jun-11 03:30N 38°02' E 023°30'0 0.0
2018-Jun-11 03:00N 38°02' E 023°30'0 0.0
2018-Jun-11 02:30N 38°02' E 023°30'0 0.0
2018-Jun-11 02:00N 38°02' E 023°30'0 0.0
2018-Jun-11 01:30N 38°02' E 023°30'0 0.0
2018-Jun-11 01:00N 38°02' E 023°30'0 0.0
2018-Jun-11 00:30N 38°02' E 023°30'0 0.0
2018-Jun-11 00:00N 38°02' E 023°30'0 0.0
2018-Jun-10 23:30N 38°02' E 023°30'0 0.0
2018-Jun-10 23:00N 38°02' E 023°30'0 0.0
2018-Jun-10 22:30N 38°02' E 023°30'0 0.0
2018-Jun-10 22:00N 38°02' E 023°30'0 0.0
2018-Jun-10 21:30N 38°02' E 023°30'0 0.0
2018-Jun-10 21:00N 38°02' E 023°30'0 0.0
2018-Jun-10 20:30N 38°02' E 023°30'0 0.0
2018-Jun-10 20:00N 38°02' E 023°30'0 0.0
2018-Jun-10 19:30N 38°02' E 023°30'0 0.0
2018-Jun-10 19:00N 38°02' E 023°30'0 0.0
2018-Jun-10 18:30N 38°02' E 023°30'0 0.0
2018-Jun-10 18:00N 38°02' E 023°30'0 0.0
2018-Jun-10 17:30N 38°02' E 023°30'0 0.0
2018-Jun-10 17:00N 38°02' E 023°30'0 0.0
2018-Jun-10 16:30N 38°02' E 023°30'0 0.0
2018-Jun-10 16:00N 38°02' E 023°30'0 0.0
2018-Jun-10 15:30N 38°02' E 023°30'0 0.0
2018-Jun-10 15:00N 38°02' E 023°30'0 0.0
2018-Jun-10 14:30N 38°02' E 023°30'0 0.0
2018-Jun-10 13:30N 38°02' E 023°30'0 0.0
2018-Jun-10 13:00N 38°02' E 023°30'0 0.0
2018-Jun-10 12:30N 38°02' E 023°30'0 0.0
2018-Jun-10 12:00N 38°02' E 023°30'0 0.0
2018-Jun-10 11:30N 38°02' E 023°30'0 0.0
2018-Jun-10 11:00N 38°02' E 023°30'0 0.0
2018-Jun-10 10:30N 38°02' E 023°30'0 0.0
2018-Jun-10 10:00N 38°02' E 023°30'0 0.0
2018-Jun-10 09:30N 38°02' E 023°30'0 0.0
2018-Jun-10 09:00N 38°02' E 023°30'0 0.4
2018-Jun-10 08:31N 38°02' E 023°31'1 2.7
2018-Jun-10 08:00N 38°01' E 023°32'1 2.3
2018-Jun-10 07:30N 38°02' E 023°32'0 0.0
2018-Jun-10 07:01N 38°02' E 023°32'0 0.0
2018-Jun-10 06:30N 38°02' E 023°32'0 0.0
2018-Jun-10 06:00N 38°02' E 023°32'  
Track history (hours):
 
Tides and Currents Weather Stations Pressure Air Temp Water Temp Dewpoint Dewpoint Depression Visibility Wind Speed Wind Dir Waves Ship Positions

Pantokrator

Last reported at 2018-Jun-20 05:30 UTC. Time now 2018-Jun-20 05:50 UTC.
Position N 38°02' E 023°32'.

Length 40 m; draft 3.8 m.

Type: Tug. MMSI: 241443000.

Date/timePositionNaut miles runAvg speedWind from/ knotsBaromVisibWave heightAir tempDewpointWater temp
2018-Jun-20 05:30N 38°02' E 023°32'0 0.0
2018-Jun-20 05:00N 38°02' E 023°32'0 0.0
2018-Jun-20 04:30N 38°02' E 023°32'0 0.0
2018-Jun-20 04:00N 38°02' E 023°32'0 0.0
2018-Jun-20 03:30N 38°02' E 023°32'0 0.0
2018-Jun-20 03:00N 38°02' E 023°32'0 0.0
2018-Jun-20 02:30N 38°02' E 023°32'0 0.0
2018-Jun-19 11:07N 38°02' E 023°32'0 0.0
2018-Jun-19 11:00N 38°02' E 023°32'0 0.0
2018-Jun-19 10:30N 38°02' E 023°32'0 0.0
2018-Jun-19 10:00N 38°02' E 023°32'0 0.0
2018-Jun-19 09:30N 38°02' E 023°32'0 0.0
2018-Jun-19 09:00N 38°02' E 023°32'0 1.0
2018-Jun-19 08:30N 38°02' E 023°32'5 9.4
2018-Jun-19 08:01N 37°60' E 023°26'3 6.0
2018-Jun-19 07:30N 37°57' E 023°24'1 1.4
2018-Jun-19 07:01N 37°58' E 023°24'0 0.0
2018-Jun-19 06:31N 37°58' E 023°24'0 0.0
2018-Jun-19 06:00N 37°58' E 023°24'0 0.0
2018-Jun-19 05:30N 37°58' E 023°24'0 0.0
2018-Jun-19 05:00N 37°58' E 023°24'0 0.0
2018-Jun-19 04:30N 37°58' E 023°24'0 0.0
2018-Jun-19 04:01N 37°58' E 023°24'0 0.0
2018-Jun-19 03:30N 37°58' E 023°24'0 0.0
2018-Jun-19 03:00N 37°58' E 023°24'0 0.0
2018-Jun-19 02:30N 37°58' E 023°24'0 0.0
2018-Jun-19 02:00N 37°58' E 023°24'0 0.0
2018-Jun-19 01:30N 37°58' E 023°24'0 0.0
2018-Jun-19 01:01N 37°58' E 023°24'0 0.0
2018-Jun-19 00:31N 37°58' E 023°24'0 0.0
2018-Jun-19 00:00N 37°58' E 023°24'0 0.0
2018-Jun-18 23:30N 37°58' E 023°24'0 0.0
2018-Jun-18 23:00N 37°58' E 023°24'1 1.0
2018-Jun-18 22:30N 37°58' E 023°25'3 6.4
2018-Jun-18 22:00N 38°00' E 023°27'4 8.4
2018-Jun-18 21:31N 38°02' E 023°32'0 0.0
2018-Jun-18 21:01N 38°02' E 023°32'0 0.0
2018-Jun-18 20:30N 38°02' E 023°32'0 0.0
2018-Jun-18 10:56N 38°02' E 023°32'0 0.0
2018-Jun-18 10:30N 38°02' E 023°32'0 0.0
2018-Jun-18 10:00N 38°02' E 023°32'1 1.3
2018-Jun-18 09:30N 38°02' E 023°32'5 9.7
2018-Jun-18 09:00N 37°60' E 023°26'3 5.4
2018-Jun-18 08:30N 37°58' E 023°24'0 0.2
2018-Jun-18 08:01N 37°57' E 023°24'1 1.8
2018-Jun-18 07:30N 37°57' E 023°23'1 1.7
2018-Jun-18 07:01N 37°57' E 023°24'2 3.2
2018-Jun-18 06:30N 37°59' E 023°25'5 9.6
2018-Jun-18 06:00N 38°01' E 023°30'2 4.0
2018-Jun-18 05:30N 38°02' E 023°32'0 0.0
2018-Jun-18 05:00N 38°02' E 023°32'0 0.0
2018-Jun-18 04:30N 38°02' E 023°32'0 0.0
2018-Jun-18 04:00N 38°02' E 023°32'0 0.0
2018-Jun-18 03:30N 38°02' E 023°32'0 0.0
2018-Jun-18 03:00N 38°02' E 023°32'0 0.0
2018-Jun-18 02:30N 38°02' E 023°32'0 0.0
2018-Jun-18 02:00N 38°02' E 023°32'0 0.0
2018-Jun-18 01:30N 38°02' E 023°32'0 0.0
2018-Jun-18 01:00N 38°02' E 023°32'0 0.0
2018-Jun-18 00:30N 38°02' E 023°32'0 0.0
2018-Jun-18 00:00N 38°02' E 023°32'0 0.0
2018-Jun-17 23:30N 38°02' E 023°32'0 0.0
2018-Jun-17 23:00N 38°02' E 023°32'0 0.0
2018-Jun-17 22:30N 38°02' E 023°32'0 0.0
2018-Jun-17 22:00N 38°02' E 023°32'0 0.0
2018-Jun-17 21:30N 38°02' E 023°32'0 0.0
2018-Jun-17 21:00N 38°02' E 023°32'0 0.0
2018-Jun-17 20:30N 38°02' E 023°32'0 0.0
2018-Jun-17 20:00N 38°02' E 023°32'0 0.0
2018-Jun-17 19:30N 38°02' E 023°32'0 0.0
2018-Jun-17 19:00N 38°02' E 023°32'0 0.0
2018-Jun-17 18:30N 38°02' E 023°32'0 0.0
2018-Jun-17 18:00N 38°02' E 023°32'0 0.0
2018-Jun-17 17:31N 38°02' E 023°32'2 3.6
2018-Jun-17 17:00N 38°01' E 023°30'5 9.4
2018-Jun-17 16:30N 37°59' E 023°25'2 4.1
2018-Jun-17 16:00N 37°58' E 023°23'1 1.7
2018-Jun-17 15:30N 37°58' E 023°24'0 0.9
2018-Jun-17 15:00N 37°58' E 023°24'0 0.0
2018-Jun-17 14:30N 37°58' E 023°24'0 0.0
2018-Jun-17 14:00N 37°58' E 023°24'0 0.0
2018-Jun-17 13:30N 37°58' E 023°24'0 0.0
2018-Jun-17 13:00N 37°58' E 023°24'0 0.0
2018-Jun-17 12:30N 37°58' E 023°24'0 0.0
2018-Jun-17 12:00N 37°58' E 023°24'0 0.0
2018-Jun-17 11:30N 37°58' E 023°24'0 0.0
2018-Jun-17 11:00N 37°58' E 023°24'0 0.0
2018-Jun-17 10:30N 37°58' E 023°24'0 0.0
2018-Jun-17 10:00N 37°58' E 023°24'0 0.0
2018-Jun-17 09:30N 37°58' E 023°24'0 0.0
2018-Jun-17 09:00N 37°58' E 023°24'0 0.0
2018-Jun-17 08:30N 37°58' E 023°24'0 0.0
2018-Jun-17 08:00N 37°58' E 023°24'0 0.0
2018-Jun-17 07:30N 37°58' E 023°24'0 0.0
2018-Jun-17 07:00N 37°58' E 023°24'0 0.0
2018-Jun-17 06:30N 37°58' E 023°24'0 0.0
2018-Jun-17 06:00N 37°58' E 023°24'0 0.0
2018-Jun-17 05:30N 37°58' E 023°24'0 0.0
2018-Jun-17 05:00N 37°58' E 023°24'0 0.0
2018-Jun-17 04:30N 37°58' E 023°24'0 0.0
2018-Jun-17 04:00N 37°58' E 023°24'0 0.0
2018-Jun-17 03:30N 37°58' E 023°24'0 0.0
2018-Jun-17 03:00N 37°58' E 023°24'0 0.0
2018-Jun-17 02:30N 37°58' E 023°24'0 0.0
2018-Jun-17 02:00N 37°58' E 023°24'0 0.0
2018-Jun-17 01:30N 37°58' E 023°24'0 0.0
2018-Jun-17 01:00N 37°58' E 023°24'0 0.0
2018-Jun-17 00:30N 37°58' E 023°24'0 0.0
2018-Jun-17 00:00N 37°58' E 023°24'0 0.0
2018-Jun-16 23:30N 37°58' E 023°24'0 0.0
2018-Jun-16 23:00N 37°58' E 023°24'0 0.0
2018-Jun-16 22:30N 37°58' E 023°24'0 0.0
2018-Jun-16 22:00N 37°58' E 023°24'1 1.6
2018-Jun-16 21:30N 37°59' E 023°25'5 9.2
2018-Jun-16 21:00N 38°01' E 023°30'2 4.3
2018-Jun-16 20:30N 38°02' E 023°32'0 0.0
2018-Jun-16 09:45N 38°02' E 023°32'0 0.0
2018-Jun-16 09:30N 38°02' E 023°32'3 6.5
2018-Jun-16 09:00N 38°01' E 023°28'3 6.8
2018-Jun-16 08:30N 37°58' E 023°26'2 4.8
2018-Jun-16 08:00N 37°58' E 023°23'0 0.0
2018-Jun-16 07:30N 37°58' E 023°23'0 0.1
2018-Jun-16 07:00N 37°58' E 023°23'1 1.7
2018-Jun-16 06:30N 37°58' E 023°23'1 2.4
2018-Jun-16 06:00N 37°56' E 023°23'2 4.2
2018-Jun-16 05:30N 37°58' E 023°25'3 6.5
2018-Jun-16 05:00N 38°00' E 023°28'4 8.1
2018-Jun-16 04:30N 38°02' E 023°32'0 0.0
2018-Jun-16 04:00N 38°02' E 023°32'0 0.0
2018-Jun-16 03:30N 38°02' E 023°32'0 0.0
2018-Jun-16 03:00N 38°02' E 023°32'0 0.0
2018-Jun-16 02:30N 38°02' E 023°32'0 0.0
2018-Jun-16 02:00N 38°02' E 023°32'0 0.0
2018-Jun-16 01:30N 38°02' E 023°32'0 0.0
2018-Jun-16 01:00N 38°02' E 023°32'0 0.0
2018-Jun-16 00:30N 38°02' E 023°32'0 0.0
2018-Jun-16 00:00N 38°02' E 023°32'0 0.0
2018-Jun-15 23:30N 38°02' E 023°32'0 0.0
2018-Jun-15 23:00N 38°02' E 023°32'0 0.0
2018-Jun-15 22:30N 38°02' E 023°32'0 0.0
2018-Jun-15 22:00N 38°02' E 023°32'0 0.0
2018-Jun-15 21:30N 38°02' E 023°32'0 0.0
2018-Jun-15 21:00N 38°02' E 023°32'0 0.0
2018-Jun-15 20:30N 38°02' E 023°32'0 0.0
2018-Jun-15 20:00N 38°02' E 023°32'0 0.1
2018-Jun-15 19:30N 38°02' E 023°32'3 5.2
2018-Jun-15 18:59N 38°01' E 023°36'0 0.2
2018-Jun-15 18:31N 38°01' E 023°36'0 0.2
2018-Jun-15 18:00N 38°01' E 023°35'0 0.0
2018-Jun-15 17:30N 38°01' E 023°35'0 0.0
2018-Jun-15 17:00N 38°01' E 023°35'3 5.3
2018-Jun-15 16:30N 38°02' E 023°32'0 0.0
2018-Jun-15 16:00N 38°02' E 023°32'1 1.8
2018-Jun-15 15:30N 38°02' E 023°31'0 1.0
2018-Jun-15 15:01N 38°02' E 023°31'0 0.8
2018-Jun-15 14:30N 38°02' E 023°30'0 0.0
2018-Jun-15 14:00N 38°02' E 023°30'0 0.0
2018-Jun-15 13:30N 38°02' E 023°30'0 0.0
2018-Jun-15 13:00N 38°02' E 023°30'1 2.9
2018-Jun-15 12:30N 38°02' E 023°32'0 0.0
2018-Jun-15 12:00N 38°02' E 023°32'0 0.0
2018-Jun-15 11:30N 38°02' E 023°32'0 0.0
2018-Jun-15 10:59N 38°02' E 023°32'0 0.0
2018-Jun-15 10:30N 38°02' E 023°32'0 0.0
2018-Jun-15 10:00N 38°02' E 023°32'0 0.0
2018-Jun-15 09:30N 38°02' E 023°32'0 0.0
2018-Jun-15 09:00N 38°02' E 023°32'0 0.0
2018-Jun-15 08:30N 38°02' E 023°32'0 0.0
2018-Jun-15 08:00N 38°02' E 023°32'0 0.0
2018-Jun-15 07:30N 38°02' E 023°32'0 0.0
2018-Jun-15 07:00N 38°02' E 023°32'0 0.0
2018-Jun-15 06:30N 38°02' E 023°32'0 0.0
2018-Jun-15 06:00N 38°02' E 023°32'0 0.0
2018-Jun-15 05:30N 38°02' E 023°32'0 0.0
2018-Jun-15 05:00N 38°02' E 023°32'0 0.0
2018-Jun-15 04:30N 38°02' E 023°32'0 0.0
2018-Jun-15 04:00N 38°02' E 023°32'0 0.0
2018-Jun-15 03:30N 38°02' E 023°32'0 0.0
2018-Jun-15 03:00N 38°02' E 023°32'0 0.0
2018-Jun-15 02:31N 38°02' E 023°32'0 0.0
2018-Jun-14 15:38N 38°02' E 023°32'0 0.0
2018-Jun-14 15:30N 38°02' E 023°32'0 0.9
2018-Jun-14 15:01N 38°02' E 023°32'1 1.8
2018-Jun-14 14:31N 38°02' E 023°32'1 1.3
2018-Jun-14 14:00N 38°02' E 023°32'0 0.0
2018-Jun-14 13:30N 38°02' E 023°32'0 0.0
2018-Jun-14 13:00N 38°02' E 023°32'0 0.0
2018-Jun-14 12:30N 38°02' E 023°32'0 0.0
2018-Jun-14 12:00N 38°02' E 023°32'0 0.0
2018-Jun-14 11:30N 38°02' E 023°32'0 0.0
2018-Jun-14 11:00N 38°02' E 023°32'0 0.0
2018-Jun-14 10:30N 38°02' E 023°32'0 0.0
2018-Jun-14 10:01N 38°02' E 023°32'0 0.0
2018-Jun-14 09:30N 38°02' E 023°32'0 0.0
2018-Jun-14 09:01N 38°02' E 023°32'0 0.0
2018-Jun-14 08:30N 38°02' E 023°32'0 0.0
2018-Jun-14 08:00N 38°02' E 023°32'0 0.0
2018-Jun-14 07:31N 38°02' E 023°32'0 1.0
2018-Jun-14 07:01N 38°02' E 023°32'0 0.0
2018-Jun-14 06:30N 38°02' E 023°32'0 1.0
2018-Jun-14 06:00N 38°02' E 023°32'0 0.0
2018-Jun-14 05:31N 38°02' E 023°32'0 0.0
2018-Jun-14 05:00N 38°02' E 023°32'0 0.0
2018-Jun-14 04:30N 38°02' E 023°32'0 0.0
2018-Jun-14 04:00N 38°02' E 023°32'0 0.0
2018-Jun-14 03:30N 38°02' E 023°32'0 0.0
2018-Jun-14 03:00N 38°02' E 023°32'0 0.0
2018-Jun-14 02:31N 38°02' E 023°32'0 0.0
2018-Jun-13 18:44N 38°02' E 023°32'0 0.1
2018-Jun-13 18:30N 38°02' E 023°32'4 7.9
2018-Jun-13 18:01N 38°01' E 023°28'3 6.8
2018-Jun-13 17:31N 37°58' E 023°25'2 3.7
2018-Jun-13 17:00N 37°58' E 023°23'0 0.0
2018-Jun-13 16:31N 37°58' E 023°23'1 2.0
2018-Jun-13 16:00N 37°58' E 023°24'0 0.0
2018-Jun-13 15:30N 37°58' E 023°24'0 0.0
2018-Jun-13 15:00N 37°58' E 023°24'0 0.0
2018-Jun-13 14:30N 37°58' E 023°24'0 0.0
2018-Jun-13 14:00N 37°58' E 023°24'0 0.0
2018-Jun-13 13:31N 37°58' E 023°24'0 0.0
2018-Jun-13 13:01N 37°58' E 023°24'0 0.0
2018-Jun-13 12:30N 37°58' E 023°24'0 0.0
2018-Jun-13 12:00N 37°58' E 023°24'0 0.0
2018-Jun-13 11:31N 37°58' E 023°24'0 0.0
2018-Jun-13 11:00N 37°58' E 023°24'0 0.0
2018-Jun-13 10:31N 37°58' E 023°24'0 0.0
2018-Jun-13 10:00N 37°58' E 023°24'0 0.0
2018-Jun-13 09:30N 37°58' E 023°24'0 0.0
2018-Jun-13 09:00N 37°58' E 023°24'0 0.0
2018-Jun-13 08:30N 37°58' E 023°24'0 0.0
2018-Jun-13 08:01N 37°58' E 023°24'0 0.0
2018-Jun-13 07:31N 37°58' E 023°24'0 0.0
2018-Jun-13 07:00N 37°58' E 023°24'0 0.0
2018-Jun-13 06:30N 37°58' E 023°24'1 1.4
2018-Jun-13 06:00N 37°58' E 023°25'3 6.8
2018-Jun-13 05:31N 38°00' E 023°28'4 8.5
2018-Jun-13 05:00N 37°59' E 023°33'3 6.1
2018-Jun-13 04:31N 37°57' E 023°35'1 1.9
2018-Jun-13 04:01N 37°57' E 023°36'0 0.3
2018-Jun-13 03:30N 37°57' E 023°36'0 0.0
2018-Jun-13 03:00N 37°57' E 023°36'0 0.0
2018-Jun-13 02:30N 37°57' E 023°36'0 0.1
2018-Jun-13 02:01N 37°57' E 023°36'0 0.0
2018-Jun-13 01:30N 37°57' E 023°36'0 0.0
2018-Jun-13 01:01N 37°57' E 023°36'0 0.0
2018-Jun-13 00:30N 37°57' E 023°36'0 0.0
2018-Jun-13 00:01N 37°57' E 023°36'0 0.0
2018-Jun-12 23:30N 37°57' E 023°36'0 0.0
2018-Jun-12 23:00N 37°57' E 023°36'0 0.0
2018-Jun-12 22:31N 37°57' E 023°36'1 1.7
2018-Jun-12 22:00N 37°57' E 023°35'1 1.9
2018-Jun-12 21:30N 37°56' E 023°35'1 1.9
2018-Jun-12 21:00N 37°57' E 023°35'0 0.1
2018-Jun-12 20:30N 37°57' E 023°35'0 0.3
2018-Jun-12 20:00N 37°57' E 023°35'1 1.4
2018-Jun-12 19:31N 37°57' E 023°36'0 0.4
2018-Jun-12 19:00N 37°57' E 023°36'0 0.0
2018-Jun-12 18:30N 37°57' E 023°36'0 0.0
2018-Jun-12 18:01N 37°57' E 023°36'0 0.0
2018-Jun-12 17:30N 37°57' E 023°36'0 0.0
2018-Jun-12 17:01N 37°57' E 023°36'0 0.0
2018-Jun-12 16:31N 37°57' E 023°36'0 0.0
2018-Jun-12 16:01N 37°57' E 023°36'0 0.0
2018-Jun-12 15:30N 37°57' E 023°36'0 0.0
2018-Jun-12 15:00N 37°57' E 023°36'0 0.0
2018-Jun-12 14:31N 37°57' E 023°36'0 0.0
2018-Jun-12 14:01N 37°57' E 023°36'0 0.0
2018-Jun-12 13:30N 37°57' E 023°36'0 0.0
2018-Jun-12 13:01N 37°57' E 023°36'0 0.0
2018-Jun-12 12:30N 37°57' E 023°36'0 0.0
2018-Jun-12 12:01N 37°57' E 023°36'0 0.0
2018-Jun-12 11:31N 37°57' E 023°36'0 0.0
2018-Jun-12 11:00N 37°57' E 023°36'0 0.0
2018-Jun-12 10:30N 37°57' E 023°36'0 0.0
2018-Jun-12 10:00N 37°57' E 023°36'0 0.0
2018-Jun-12 09:30N 37°57' E 023°36'0 0.0
2018-Jun-12 09:00N 37°57' E 023°36'0 0.0
2018-Jun-12 08:31N 37°57' E 023°36'0 0.0
2018-Jun-12 08:00N 37°57' E 023°36'0 0.0
2018-Jun-12 07:30N 37°57' E 023°36'0 0.0
2018-Jun-12 07:00N 37°57' E 023°36'0 0.0
2018-Jun-12 06:30N 37°57' E 023°36'0 0.0
2018-Jun-12 06:00N 37°57' E 023°36'0 0.0
2018-Jun-12 05:30N 37°57' E 023°36'1 1.8
2018-Jun-12 05:01N 37°57' E 023°35'1 2.4
2018-Jun-12 04:31N 37°56' E 023°35'0 0.9
2018-Jun-12 04:01N 37°56' E 023°35'2 3.7
2018-Jun-12 03:31N 37°57' E 023°36'0 0.6
2018-Jun-12 03:01N 37°57' E 023°36'0 0.0
2018-Jun-12 02:31N 37°57' E 023°36'0 0.0
2018-Jun-11 17:26N 37°57' E 023°36'1 1.9
2018-Jun-11 17:00N 37°57' E 023°35'0 0.2
2018-Jun-11 16:30N 37°57' E 023°35'2 3.2
2018-Jun-11 16:01N 37°55' E 023°35'611.0
2018-Jun-11 15:30N 37°53' E 023°29'510.0
2018-Jun-11 15:00N 37°54' E 023°23'510.0
2018-Jun-11 14:30N 37°59' E 023°25'611.5
2018-Jun-11 14:00N 38°02' E 023°31'1 1.9
2018-Jun-11 13:30N 38°02' E 023°32'0 0.0
2018-Jun-11 13:00N 38°02' E 023°32'0 0.0
2018-Jun-11 12:30N 38°02' E 023°32'0 0.0
2018-Jun-11 12:00N 38°02' E 023°32'1 2.8
2018-Jun-11 11:30N 38°02' E 023°30'0 0.6
2018-Jun-11 11:00N 38°02' E 023°30'0 0.0
2018-Jun-11 10:30N 38°02' E 023°30'0 0.0
2018-Jun-11 10:00N 38°02' E 023°30'0 0.0
2018-Jun-11 09:30N 38°02' E 023°30'0 0.0
2018-Jun-11 09:00N 38°02' E 023°30'0 0.0
2018-Jun-11 08:30N 38°02' E 023°30'0 0.0
2018-Jun-11 08:00N 38°02' E 023°30'0 0.0
2018-Jun-11 07:30N 38°02' E 023°30'0 0.0
2018-Jun-11 07:00N 38°02' E 023°30'0 0.0
2018-Jun-11 06:30N 38°02' E 023°30'0 0.0
2018-Jun-11 06:00N 38°02' E 023°30'0 0.0
2018-Jun-11 05:30N 38°02' E 023°30'0 0.0
2018-Jun-11 05:00N 38°02' E 023°30'0 0.0
2018-Jun-11 04:30N 38°02' E 023°30'0 0.0
2018-Jun-11 04:00N 38°02' E 023°30'0 0.0
2018-Jun-11 03:30N 38°02' E 023°30'0 0.0
2018-Jun-11 03:00N 38°02' E 023°30'0 0.0
2018-Jun-11 02:30N 38°02' E 023°30'0 0.0
2018-Jun-11 02:00N 38°02' E 023°30'0 0.0
2018-Jun-11 01:30N 38°02' E 023°30'0 0.0
2018-Jun-11 01:00N 38°02' E 023°30'0 0.0
2018-Jun-11 00:30N 38°02' E 023°30'0 0.0
2018-Jun-11 00:00N 38°02' E 023°30'0 0.0
2018-Jun-10 23:30N 38°02' E 023°30'0 0.0
2018-Jun-10 23:00N 38°02' E 023°30'0 0.0
2018-Jun-10 22:30N 38°02' E 023°30'0 0.0
2018-Jun-10 22:00N 38°02' E 023°30'0 0.0
2018-Jun-10 21:30N 38°02' E 023°30'0 0.0
2018-Jun-10 21:00N 38°02' E 023°30'0 0.0
2018-Jun-10 20:30N 38°02' E 023°30'0 0.0
2018-Jun-10 20:00N 38°02' E 023°30'0 0.0
2018-Jun-10 19:30N 38°02' E 023°30'0 0.0
2018-Jun-10 19:00N 38°02' E 023°30'0 0.0
2018-Jun-10 18:30N 38°02' E 023°30'0 0.0
2018-Jun-10 18:00N 38°02' E 023°30'0 0.0
2018-Jun-10 17:30N 38°02' E 023°30'0 0.0
2018-Jun-10 17:00N 38°02' E 023°30'0 0.0
2018-Jun-10 16:30N 38°02' E 023°30'0 0.0
2018-Jun-10 16:00N 38°02' E 023°30'0 0.0
2018-Jun-10 15:30N 38°02' E 023°30'0 0.0
2018-Jun-10 15:00N 38°02' E 023°30'0 0.0
2018-Jun-10 14:30N 38°02' E 023°30'0 0.0
2018-Jun-10 13:30N 38°02' E 023°30'0 0.0
2018-Jun-10 13:00N 38°02' E 023°30'0 0.0
2018-Jun-10 12:30N 38°02' E 023°30'0 0.0
2018-Jun-10 12:00N 38°02' E 023°30'0 0.0
2018-Jun-10 11:30N 38°02' E 023°30'0 0.0
2018-Jun-10 11:00N 38°02' E 023°30'0 0.0
2018-Jun-10 10:30N 38°02' E 023°30'0 0.0
2018-Jun-10 10:00N 38°02' E 023°30'0 0.0
2018-Jun-10 09:30N 38°02' E 023°30'0 0.0
2018-Jun-10 09:00N 38°02' E 023°30'0 0.4
2018-Jun-10 08:31N 38°02' E 023°31'1 2.7
2018-Jun-10 08:00N 38°01' E 023°32'1 2.3
2018-Jun-10 07:30N 38°02' E 023°32'0 0.0
2018-Jun-10 07:01N 38°02' E 023°32'0 0.0
2018-Jun-10 06:30N 38°02' E 023°32'0 0.0
2018-Jun-10 06:00N 38°02' E 023°32'  

Dump ship's entire track history